Terminal Aerodrome Forecast
Issued by NWS

Home | Current Version | Previous Version | Graphics & Text | Print | Product List | Glossary On
Versions: 1 2 3 4 5 6 7 8 9 10 11 12 13 14 15 16 17 18 19 20 21 22 23 24 25 26 27 28 29 30
000
FTUS43 KGRB 150500
TAFRHI
TAF
KRHI 150530Z 1506/1606 28005KT P6SM FEW050 SCT100
     FM150700 29005KT P6SM VCSH BKN040 BKN090
     FM151500 30006KT P6SM SCT040 BKN090
     FM151900 31007KT P6SM SCT040 SCT070
     FM152200 31005KT P6SM FEW050 SCT070=

USA.gov is the U.S. government's official web portal to all federal, state and local government web resources and services.